EDT,Max TemperatureF,Mean TemperatureF,Min TemperatureF,Max Dew PointF,MeanDew PointF,Min DewpointF,Max Humidity, Mean Humidity, Min Humidity, Max Sea Level PressureIn, Mean Sea Level PressureIn, Min Sea Level PressureIn, Max VisibilityMiles, Mean VisibilityMiles, Min VisibilityMiles, Max Wind SpeedMPH, Mean Wind SpeedMPH, Max Gust SpeedMPH,PrecipitationIn, CloudCover, Events, WindDirDegrees
2013-6-1,91,81,71,72,69,66,88,65,46,30.08,30.04,29.96,10,10,10,14,7,20,0.00,2,,136
2013-6-2,93,82,71,77,71,70,94,74,46,30.03,29.96,29.85,10,10,1,22,6,25,0.00,4,Rain-Thunderstorm,158
2013-6-3,89,80,71,75,72,70,100,81,58,29.97,29.92,29.87,10,10,10,9,3,,0.00,2,Thunderstorm,253
2013-6-4,95,84,73,77,73,72,100,78,47,30.01,29.96,29.92,10,10,7,15,3,21,0.00,2,Thunderstorm,213
2013-6-5,87,80,73,77,74,70,100,85,62,30.03,29.97,29.90,10,10,3,14,5,23,0.00,4,Rain-Thunderstorm,126
2013-6-6,78,76,73,73,72,72,94,90,78,29.95,29.80,29.69,10,10,5,14,6,17,0.00,6,Rain,36
2013-6-7,93,83,73,77,73,70,100,81,49,29.91,29.81,29.72,10,9,1,17,6,32,0.00,3,Rain-Thunderstorm,248
2013-6-8,93,83,73,77,74,72,100,82,52,30.09,29.99,29.90,10,9,1,22,4,28,0.00,2,Rain-Thunderstorm,217
2013-6-9,86,80,73,79,74,72,94,88,74,30.11,30.07,30.03,10,10,2,14,4,28,0.00,2,Rain-Thunderstorm,176
2013-6-10,87,80,73,79,75,72,100,87,62,30.10,30.06,30.02,10,8,1,21,3,32,0.00,3,Rain-Thunderstorm,215
2013-6-11,95,86,77,77,75,72,94,70,47,30.08,30.04,30.00,10,10,5,8,3,,0.00,0,,251
2013-6-12,96,86,77,79,76,73,94,73,47,30.09,30.04,29.99,10,9,5,9,4,,0.00,0,,268
2013-6-13,98,88,78,79,77,73,94,72,44,30.02,29.95,29.84,10,8,2,14,6,16,0.00,0,,256
2013-6-14,95,86,78,77,74,70,94,70,47,29.95,29.88,29.82,10,10,7,15,6,18,0.00,1,Thunderstorm,334
2013-6-15,95,86,77,77,70,64,94,64,41,30.06,30.02,29.94,10,10,5,15,6,22,0.00,1,,99
2013-6-16,95,84,73,77,73,70,88,69,44,30.12,30.07,30.02,10,10,10,10,6,,0.00,1,Thunderstorm,143
2013-6-17,95,86,77,77,74,68,94,75,41,30.07,30.02,29.96,10,9,4,15,3,20,0.00,1,Rain-Thunderstorm,220
2013-6-18,95,86,77,77,74,72,94,73,49,30.03,29.98,29.91,10,10,7,20,6,25,0.00,1,Rain,238
2013-6-19,95,86,77,77,74,72,89,74,47,30.05,29.99,29.95,10,10,3,14,5,17,0.00,1,Rain,280
2013-6-20,95,84,73,77,73,70,94,74,47,30.12,30.07,30.01,10,10,10,14,4,,0.00,2,,48
2013-6-21,95,84,73,75,70,61,94,66,36,30.16,30.12,30.08,10,10,10,15,8,23,0.00,1,,67
2013-6-22,95,84,73,77,72,70,94,78,47,30.16,30.11,30.05,10,10,3,17,5,23,0.00,3,Rain-Thunderstorm,84
2013-6-23,89,81,73,77,74,72,100,87,59,30.16,30.13,30.09,10,9,4,12,4,22,0.00,3,Rain-Thunderstorm,91
2013-6-24,95,84,73,79,75,72,100,86,53,30.20,30.16,30.11,10,9,2,31,2,34,0.00,1,Rain-Thunderstorm,75
2013-6-25,95,84,73,77,74,72,94,77,47,30.18,30.12,30.05,10,10,7,15,2,18,0.00,0,Thunderstorm,172
2013-6-26,95,84,73,79,75,72,100,74,47,30.11,30.05,29.98,10,10,5,9,2,,0.00,1,Thunderstorm,244
2013-6-27,95,86,78,79,77,75,94,79,56,30.03,29.98,29.90,10,10,5,10,5,16,0.00,1,Thunderstorm,249
2013-6-28,91,82,73,82,76,72,100,88,62,29.93,29.87,29.78,10,9,3,25,7,32,0.00,3,Rain-Thunderstorm,234
2013-6-29,87,80,73,77,74,72,94,86,70,29.82,29.77,29.72,10,10,7,13,4,16,0.00,2,Rain-Thunderstorm,226
2013-6-30,87,80,73,77,76,72,94,88,66,29.81,29.76,29.73,10,9,1,12,5,17,0.00,3,Rain-Thunderstorm,179